Latest Weather Observations for Lucas Heights

IDN60901

Issued at 2:01 am EST Wednesday 2 September 2015 (issued every 10 minutes, with the page automatically refreshed every 10 minutes)

About weather observations | Map of Sydney area stations | Latest observations for Sydney area | Other Formats
Station Details ID: 066023 Name: LUCAS HEIGHTS AWS Lat: -34.05 Lon: 150.98 Height: 140.0 m
Data from the previous 72 hours. | See also: Recent months for locations in New South Wales
Date/Time
EST
Tmp

°C
App
Tmp
°C
Dew
Point
°C
Rel
Hum
%
Delta-T

°C
Wind Press
QNH
hPa
Press
MSL
hPa
Rain
since
9 am
mm
Dir
 
Spd
km/h
Gust
km/h
Spd
kts
Gust
kts
02/01:45am 6.4 2.1 3.3 80 1.3 SSW 15 17 8 9 1016.7 - 0.0
02/01:30am 7.1 3.0 4.3 82 1.2 SW 15 17 8 9 1016.8 - 0.0
02/01:15am 6.1 1.8 3.4 83 1.1 SW 15 17 8 9 1016.9 - 0.0
02/01:00am 5.4 1.0 2.6 82 1.2 SW 15 19 8 10 1016.8 - 0.0
02/12:45am 5.6 1.2 2.7 81 1.2 SW 15 17 8 9 1016.7 - 0.0
02/12:30am 5.9 1.5 2.9 81 1.2 SW 15 19 8 10 1016.8 - 0.0
02/12:15am 6.0 2.0 2.8 80 1.3 SW 13 17 7 9 1016.7 - 0.0
02/12:00am 6.1 2.1 3.0 80 1.3 SSW 13 15 7 8 1016.6 - 0.0
 
Date/Time
EST
Tmp

°C
App
Tmp
°C
Dew
Point
°C
Rel
Hum
%
Delta-T

°C
Wind Press
QNH
hPa
Press
MSL
hPa
Rain
since
9 am
mm
Dir
 
Spd
km/h
Gust
km/h
Spd
kts
Gust
kts
01/11:45pm 6.0 2.4 2.9 80 1.3 SW 11 13 6 7 1016.5 - 0.0
01/11:30pm 6.0 2.4 2.7 79 1.4 SW 11 13 6 7 1016.5 - 0.0
01/11:15pm 6.2 3.0 2.8 79 1.4 SW 9 11 5 6 1016.4 - 0.0
01/11:00pm 6.7 3.1 3.1 78 1.5 WSW 11 13 6 7 1016.4 - 0.0
01/10:45pm 7.5 4.1 3.9 78 1.6 WSW 11 13 6 7 1016.4 - 0.0
01/10:30pm 8.0 5.4 4.3 77 1.6 WSW 7 11 4 6 1016.4 - 0.0
01/10:15pm 7.6 5.1 3.8 77 1.6 WSW 6 7 3 4 1016.3 - 0.0
01/10:00pm 8.3 5.9 4.3 76 1.8 SW 6 9 3 5 1016.2 - 0.0
01/09:45pm 8.5 6.1 4.5 76 1.8 S 6 9 3 5 1016.0 - 0.0
01/09:30pm 8.2 5.6 4.0 75 1.8 SSE 7 9 4 5 1015.9 - 0.0
01/09:15pm 8.9 5.6 4.4 73 2.0 SSE 11 13 6 7 1015.7 - 0.0
01/09:00pm 9.3 6.0 4.8 73 2.0 SSE 11 13 6 7 1015.6 - 0.0
01/08:45pm 9.0 5.3 4.4 73 2.0 SSE 13 13 7 7 1015.4 - 0.0
01/08:30pm 9.0 5.3 4.2 72 2.1 SSE 13 13 7 7 1015.2 - 0.0
01/08:15pm 9.4 6.1 4.3 70 2.3 SSE 11 13 6 7 1015.2 - 0.0
01/08:00pm 9.8 6.5 4.5 69 2.4 SE 11 13 6 7 1015.0 - 0.0
01/07:45pm 9.8 6.8 4.3 68 2.5 SE 9 11 5 6 1014.9 - 0.0
01/07:30pm 10.1 7.1 4.2 67 2.6 SE 9 11 5 6 1014.8 - 0.0
01/07:15pm 10.6 7.6 4.2 64 2.9 ESE 9 11 5 6 1014.7 - 0.0
01/07:00pm 11.0 8.0 4.2 63 3.1 ESE 9 11 5 6 1014.5 - 0.0
01/06:45pm 11.3 8.3 4.2 61 3.2 ESE 9 9 5 5 1014.4 - 0.0
01/06:30pm 11.7 8.7 4.2 60 3.4 ESE 9 9 5 5 1014.2 - 0.0
01/06:15pm 12.1 9.5 4.3 59 3.6 ESE 7 9 4 5 1014.0 - 0.0
01/06:00pm 12.5 9.6 4.4 58 3.7 ESE 9 9 5 5 1013.8 - 0.0
01/05:45pm 13.0 10.1 4.4 56 4.0 ESE 9 13 5 7 1013.7 - 0.0
01/05:30pm 13.4 10.1 4.4 54 4.2 ESE 11 13 6 7 1013.6 - 0.0
01/05:15pm 13.9 10.2 4.6 53 4.3 ESE 13 17 7 9 1013.5 - 0.0
01/05:00pm 14.4 11.1 4.7 52 4.5 ESE 11 17 6 9 1013.4 - 0.0
01/04:45pm 14.7 11.4 4.6 50 4.7 ESE 11 17 6 9 1013.3 - 0.0
01/04:30pm 15.0 11.7 4.6 50 4.9 ESE 11 17 6 9 1013.2 - 0.0
01/04:15pm 15.1 11.8 4.7 50 4.9 ESE 11 17 6 9 1013.2 - 0.0
01/04:00pm 15.3 11.6 4.6 49 5.0 ESE 13 19 7 10 1013.2 - 0.0
01/03:45pm 15.6 11.9 4.6 48 5.2 ESE 13 17 7 9 1013.1 - 0.0
01/03:30pm 15.8 12.1 4.5 47 5.3 ESE 13 17 7 9 1013.1 - 0.0
01/03:15pm 16.4 12.7 4.7 46 5.6 E 13 22 7 12 1013.1 - 0.0
01/03:00pm 16.4 12.7 4.5 45 5.6 E 13 19 7 10 1013.0 - 0.0
01/02:45pm 17.6 14.4 2.9 37 6.8 ENE 9 19 5 10 1013.0 - 0.0
01/02:30pm 17.9 15.3 0.7 31 7.6 ESE 4 9 2 5 1012.9 - 0.0
01/02:15pm 17.7 14.5 1.0 32 7.4 SW 7 17 4 9 1013.0 - 0.0
01/02:00pm 17.4 14.2 0.7 32 7.4 W 7 17 4 9 1013.0 - 0.0
01/01:45pm 17.1 13.5 0.8 33 7.2 W 9 17 5 9 1013.1 - 0.0
01/01:30pm 17.2 14.3 1.5 34 7.0 WSW 6 13 3 7 1013.2 - 0.0
01/01:15pm 16.5 13.6 1.5 36 6.7 SSW 6 11 3 6 1013.5 - 0.0
01/01:00pm 16.3 12.9 2.1 38 6.4 W 9 22 5 12 1013.8 - 0.0
01/12:45pm 15.5 12.1 1.8 39 6.1 NW 9 19 5 10 1014.0 - 0.0
01/12:30pm 15.6 12.2 2.1 40 6.0 W 9 20 5 11 1014.2 - 0.0
01/12:15pm 15.4 11.7 2.6 42 5.8 W 11 20 6 11 1014.4 - 0.0
01/12:00pm 15.1 11.8 2.6 43 5.6 WNW 9 17 5 9 1014.7 - 0.0
01/11:45am 15.2 11.6 2.7 43 5.6 WSW 11 19 6 10 1015.0 - 0.0
01/11:30am 14.7 11.4 2.6 44 5.4 SW 9 17 5 9 1015.2 - 0.0
01/11:15am 14.5 11.3 3.3 47 5.1 SW 9 20 5 11 1015.3 - 0.0
01/11:00am 14.2 10.3 3.2 47 5.0 WSW 13 22 7 12 1015.4 - 0.0
01/10:45am 13.9 10.0 3.4 49 4.8 SW 13 22 7 12 1015.4 - 0.0
01/10:30am 13.8 10.0 3.9 51 4.5 SSW 13 22 7 12 1015.5 - 0.0
01/10:15am 13.1 8.8 3.4 51 4.4 WSW 15 24 8 13 1015.6 - 0.0
01/10:00am 12.9 8.6 3.5 53 4.2 WSW 15 24 8 13 1015.6 - 0.0
01/09:45am 12.5 7.4 3.3 53 4.1 WSW 19 28 10 15 1015.6 - 0.0
01/09:30am 12.2 6.9 3.1 53 4.0 WSW 20 28 11 15 1015.6 - 0.0
01/09:15am 11.9 6.6 3.0 54 3.9 WSW 20 28 11 15 1015.5 - 0.0
01/09:00am 11.5 6.2 2.9 55 3.8 SW 20 32 11 17 1015.5 - 0.0
01/08:45am 11.1 5.4 2.9 57 3.6 SW 22 35 12 19 1015.5 - 0.0
01/08:30am 10.8 5.7 3.3 60 3.3 SW 19 32 10 17 1015.7 - 0.0
01/08:15am 10.4 6.1 3.5 62 3.0 SW 15 28 8 15 1015.8 - 0.0
01/08:00am 10.0 5.8 3.6 64 2.8 SW 15 24 8 13 1015.6 - 0.0
01/07:45am 9.4 5.5 3.6 67 2.5 SW 13 20 7 11 1015.6 - 0.0
01/07:30am 8.6 4.3 3.5 70 2.2 SW 15 22 8 12 1015.4 - 0.0
01/07:15am 8.0 3.7 3.0 71 2.1 SW 15 19 8 10 1015.2 - 0.0
01/07:00am 7.7 2.6 2.9 71 2.0 SW 19 22 10 12 1015.2 - 0.0
01/06:45am 7.6 2.5 2.8 71 2.0 SW 19 22 10 12 1015.1 - 0.0
01/06:30am 7.6 2.5 2.8 71 2.0 SW 19 24 10 13 1015.0 - 0.0
01/06:15am 7.7 2.0 2.8 71 2.1 SW 22 26 12 14 1015.0 - 0.0
01/06:00am 7.8 2.5 2.9 71 2.1 SW 20 24 11 13 1014.9 - 0.0
01/05:45am 8.0 2.9 3.0 71 2.1 SW 19 22 10 12 1014.6 - 0.0
01/05:30am 8.0 3.0 3.4 73 2.0 SW 19 22 10 12 1014.5 - 0.0
01/05:15am 7.3 3.3 2.8 73 1.9 SSW 13 20 7 11 1014.4 - 0.0
01/05:00am 7.3 4.0 2.3 70 2.1 SSW 9 17 5 9 1014.4 - 0.0
01/04:45am 8.0 4.0 2.8 70 2.2 SSW 13 17 7 9 1014.4 - 0.0
01/04:30am 8.5 4.5 3.0 68 2.4 SW 13 19 7 10 1014.3 - 0.0
01/04:15am 8.7 3.6 3.1 68 2.4 SSW 19 22 10 12 1014.3 - 0.0
01/04:00am 8.7 3.6 3.2 68 2.4 SSW 19 22 10 12 1014.3 - 0.0
01/03:45am 8.5 3.8 3.1 69 2.3 SSW 17 22 9 12 1014.3 - 0.0
01/03:30am 8.4 4.4 3.1 69 2.3 SSW 13 19 7 10 1014.3 - 0.0
01/03:15am 8.4 4.5 3.2 70 2.2 SSW 13 17 7 9 1014.5 - 0.0
01/03:00am 8.0 4.4 2.7 69 2.2 SSW 11 17 6 9 1014.5 - 0.0
01/02:45am 8.7 5.6 3.7 71 2.2 SSW 9 13 5 7 1014.5 - 0.0
01/02:30am 7.7 4.5 2.8 71 2.1 SSW 9 13 5 7 1014.7 - 0.0
01/02:15am 8.0 4.8 3.2 72 2.1 SW 9 13 5 7 1014.8 - 0.0
01/02:00am 7.4 4.7 2.6 71 2.0 SSW 6 9 3 5 1015.0 - 0.0
01/01:45am 7.5 4.6 2.4 70 2.1 SSW 7 11 4 6 1015.0 - 0.0
01/01:30am 8.3 5.0 2.7 68 2.4 SW 9 15 5 8 1015.1 - 0.0
01/01:15am 9.1 4.8 3.3 67 2.5 SW 15 17 8 9 1015.2 - 0.0
01/01:00am 9.1 4.5 3.5 68 2.4 SW 17 19 9 10 1015.2 - 0.0
01/12:45am 9.0 4.3 3.4 68 2.4 SW 17 19 9 10 1015.3 - 0.0
01/12:30am 9.0 4.7 3.3 67 2.5 SW 15 20 8 11 1015.4 - 0.0
01/12:15am 9.3 4.6 3.4 66 2.6 SW 17 19 9 10 1015.5 - 0.0
01/12:00am 9.5 4.5 3.6 66 2.6 SW 19 20 10 11 1015.5 - 0.0
 
Date/Time
EST
Tmp

°C
App
Tmp
°C
Dew
Point
°C
Rel
Hum
%
Delta-T

°C
Wind Press
QNH
hPa
Press
MSL
hPa
Rain
since
9 am
mm
Dir
 
Spd
km/h
Gust
km/h
Spd
kts
Gust
kts
31/11:45pm 10.0 5.0 3.8 65 2.7 SW 19 20 10 11 1015.6 - 0.0
31/11:30pm 10.3 5.4 4.0 65 2.8 SW 19 22 10 12 1015.6 - 0.0
31/11:15pm 10.4 5.3 4.3 66 2.7 SW 20 24 11 13 1015.7 - 0.0
31/11:00pm 10.3 4.9 4.5 67 2.6 SW 22 24 12 13 1015.8 - 0.0
31/10:45pm 10.1 5.1 4.8 69 2.4 SW 20 22 11 12 1015.8 - 0.0
31/10:30pm 10.0 5.2 5.5 73 2.1 SW 20 24 11 13 1015.8 - 0.0
31/10:15pm 9.7 6.1 5.1 73 2.1 SW 13 20 7 11 1015.9 - 0.0
31/10:00pm 10.8 8.2 6.0 72 2.2 SW 9 15 5 8 1016.0 - 0.0
31/09:45pm 11.1 8.9 6.3 72 2.3 WSW 7 9 4 5 1016.0 - 0.0
31/09:30pm 11.2 8.7 6.5 73 2.2 WSW 9 11 5 6 1015.9 - 0.0
31/09:15pm 11.1 8.6 6.5 73 2.2 WSW 9 13 5 7 1015.8 - 0.0
31/09:00pm 10.9 8.0 6.6 75 2.0 SW 11 13 6 7 1015.8 - 0.0
31/08:45pm 10.6 7.7 6.5 76 1.9 SW 11 13 6 7 1015.7 - 0.0
31/08:30pm 10.4 7.5 6.5 77 1.8 SW 11 13 6 7 1015.7 - 0.0
31/08:15pm 9.9 7.7 6.0 77 1.8 SW 7 13 4 7 1015.6 - 0.0
31/08:00pm 9.7 7.4 5.6 75 1.9 S 7 11 4 6 1015.4 - 0.0
31/07:45pm 10.1 7.0 5.7 74 2.0 S 11 13 6 7 1015.2 - 0.0
31/07:30pm 10.6 7.6 5.9 73 2.2 S 11 13 6 7 1015.0 - 0.0
31/07:15pm 11.3 8.3 6.2 71 2.4 S 11 17 6 9 1014.9 - 0.0
31/07:00pm 11.8 8.5 6.5 70 2.5 S 13 17 7 9 1014.8 - 0.0
31/06:45pm 12.1 8.8 6.6 69 2.6 S 13 22 7 12 1014.7 - 0.0
31/06:30pm 12.4 8.8 6.6 68 2.8 S 15 19 8 10 1014.6 - 0.0
31/06:15pm 12.6 9.0 6.7 67 2.8 S 15 20 8 11 1014.4 - 0.0
31/06:00pm 12.8 9.2 6.6 66 3.0 S 15 24 8 13 1014.3 - 0.0
31/05:45pm 13.2 9.6 6.6 64 3.2 S 15 24 8 13 1014.2 - 0.0
31/05:30pm 13.5 9.1 6.6 63 3.3 SSE 19 24 10 13 1014.2 - 0.0
31/05:15pm 13.7 9.7 6.5 62 3.5 SSE 17 22 9 12 1014.1 - 0.0
31/05:00pm 14.0 9.9 6.2 59 3.8 SSE 17 28 9 15 1014.0 - 0.0
31/04:45pm 14.6 10.5 6.0 56 4.1 SSE 17 26 9 14 1013.8 - 0.0
31/04:30pm 14.8 11.8 6.1 56 4.2 SSE 11 22 6 12 1013.8 - 0.0
31/04:15pm 15.1 12.1 5.9 54 4.4 SSE 11 20 6 11 1013.7 - 0.0
31/04:00pm 15.6 12.2 6.0 53 4.7 SSE 13 24 7 13 1013.8 - 0.0
31/03:45pm 15.4 11.6 6.0 53 4.6 SSE 15 24 8 13 1013.8 - 0.0
31/03:30pm 15.8 11.2 5.6 50 4.9 SSE 19 24 10 13 1013.8 - 0.0
31/03:15pm 16.1 11.9 5.8 50 5.0 SSE 17 28 9 15 1013.9 - 0.0
31/03:00pm 15.9 11.7 5.6 50 5.0 SSE 17 24 9 13 1013.9 - 0.0
31/02:45pm 15.9 11.6 5.4 49 5.0 SE 17 24 9 13 1014.0 - 0.0
31/02:30pm 15.9 12.0 5.4 49 5.0 SE 15 22 8 12 1014.0 - 0.0
31/02:15pm 16.2 12.7 5.3 48 5.2 SE 13 24 7 13 1014.1 - 0.0
31/02:00pm 16.3 13.2 5.5 48 5.2 SE 11 17 6 9 1014.2 - 0.0
31/01:45pm 15.7 12.1 4.9 48 5.1 SE 13 19 7 10 1014.3 - 0.0
31/01:30pm 15.9 12.3 5.0 48 5.2 SE 13 19 7 10 1014.4 - 0.0
31/01:15pm 16.4 12.7 4.7 46 5.6 SE 13 19 7 10 1014.6 - 0.0
31/01:00pm 16.8 13.9 4.8 45 5.7 SSE 9 19 5 10 1014.7 - 0.0
31/12:45pm 17.2 13.8 4.1 41 6.2 S 11 20 6 11 1014.9 - 0.0
31/12:30pm 17.0 12.3 3.2 39 6.4 SW 17 26 9 14 1015.1 - 0.0
31/12:15pm 17.0 13.6 4.1 42 6.1 SW 11 26 6 14 1015.3 - 0.0
31/12:00pm 16.5 11.9 3.9 43 5.9 SSW 17 24 9 13 1015.6 - 0.0
31/11:45am 16.2 11.7 4.1 44 5.7 SSW 17 24 9 13 1015.9 - 0.0
31/11:30am 16.2 12.1 4.6 46 5.5 SSW 15 24 8 13 1016.0 - 0.0
31/11:15am 15.8 12.1 4.5 47 5.3 SW 13 19 7 10 1016.3 - 0.0
31/11:00am 15.9 12.6 4.6 47 5.3 SW 11 20 6 11 1016.4 - 0.0
31/10:45am 15.6 11.8 4.0 46 5.4 SSW 13 22 7 12 1016.5 - 0.0
31/10:30am 15.3 11.2 4.2 47 5.2 SSW 15 24 8 13 1016.7 - 0.0
31/10:15am 14.8 11.5 4.3 49 4.9 SSW 11 19 6 10 1016.8 - 0.0
31/10:00am 14.5 11.2 4.3 50 4.7 SSW 11 17 6 9 1016.9 - 0.0
31/09:45am 14.2 10.9 4.4 51 4.6 S 11 19 6 10 1017.1 - 0.0
31/09:30am 13.8 10.9 4.8 54 4.2 SW 9 19 5 10 1017.2 - 0.0
31/09:15am 12.9 9.6 4.4 56 3.9 SW 11 19 6 10 1017.3 - 0.0
31/09:00am 12.3 8.9 4.0 57 3.8 SW 11 19 6 10 1017.3 - 0.0
31/08:45am 12.2 8.8 4.2 58 3.6 SW 11 15 6 8 1017.3 - 0.0
31/08:30am 11.7 7.9 3.9 59 3.5 SW 13 20 7 11 1017.4 - 0.0
31/08:15am 11.2 7.8 3.9 61 3.3 SW 11 17 6 9 1017.4 - 0.0
31/08:00am 10.7 6.9 3.9 63 3.0 SW 13 17 7 9 1017.4 - 0.0
31/07:45am 10.1 6.3 3.8 65 2.8 SW 13 17 7 9 1017.3 - 0.0
31/07:30am 9.0 4.8 3.8 70 2.3 SSW 15 19 8 10 1017.3 - 0.0
31/07:15am 8.3 4.0 3.3 71 2.2 SSW 15 20 8 11 1017.3 - 0.0
31/07:00am 8.1 3.0 3.1 71 2.1 SW 19 22 10 12 1017.1 - 0.0
31/06:45am 8.0 2.9 3.0 71 2.1 SW 19 22 10 12 1017.1 - 0.0
31/06:30am 8.0 2.9 3.1 71 2.1 SW 19 22 10 12 1016.9 - 0.0
31/06:15am 8.0 3.3 3.1 71 2.1 SW 17 20 9 11 1016.8 - 0.0
31/06:00am 8.2 4.3 3.2 71 2.1 SW 13 17 7 9 1016.7 - 0.0
31/05:45am 8.3 4.3 3.1 70 2.2 SSW 13 15 7 8 1016.7 - 0.0
31/05:30am 8.6 4.7 3.2 69 2.3 SSW 13 17 7 9 1016.6 - 0.0
31/05:15am 8.7 4.8 3.5 70 2.3 SSW 13 19 7 10 1016.5 - 0.0
31/05:00am 8.4 4.2 3.7 72 2.0 S 15 19 8 10 1016.5 - 0.0
31/04:45am 8.2 3.6 3.7 73 2.0 S 17 22 9 12 1016.5 - 0.0
31/04:30am 8.1 3.1 3.7 74 1.9 S 19 24 10 13 1016.5 - 0.0
31/04:15am 8.3 4.5 3.7 73 2.0 S 13 20 7 11 1016.6 - 0.0
31/04:00am 8.8 5.0 4.0 72 2.1 S 13 19 7 10 1016.7 - 0.0
31/03:45am 8.9 5.2 4.3 73 2.0 SSW 13 19 7 10 1016.7 - 0.0
31/03:30am 8.5 4.7 3.7 72 2.1 SSW 13 17 7 9 1016.8 - 0.0
31/03:15am 8.7 4.8 3.6 70 2.2 S 13 19 7 10 1016.8 - 0.0
31/03:00am 9.1 4.9 3.6 68 2.4 S 15 19 8 10 1017.0 - 0.0
31/02:45am 9.3 5.0 3.4 66 2.6 S 15 19 8 10 1017.3 - 0.0
31/02:30am 9.8 5.6 3.7 66 2.7 S 15 22 8 12 1017.5 - 0.0
31/02:15am 10.0 5.0 3.8 65 2.7 S 19 28 10 15 1017.6 - 0.0
31/02:00am 10.1 5.2 4.0 66 2.7 S 19 30 10 16 1017.8 - 0.0
31/01:45am 10.4 5.6 4.4 66 2.7 S 19 28 10 15 1018.0 - 0.0
31/01:30am 10.7 5.7 4.8 67 2.7 S 20 30 11 16 1018.3 - 0.0
31/01:15am 10.9 6.5 4.9 66 2.7 S 17 24 9 13 1018.4 - 0.0
31/01:00am 11.3 7.0 5.2 66 2.8 SSW 17 24 9 13 1018.5 - 0.0
31/12:45am 11.5 7.6 5.4 66 2.8 SSW 15 22 8 12 1018.5 - 0.0
31/12:30am 11.4 7.9 5.4 66 2.8 S 13 24 7 13 1018.6 - 0.0
31/12:15am 11.7 8.5 5.2 64 3.0 SSW 11 17 6 9 1018.6 - 0.0
31/12:00am 11.9 8.4 5.5 65 3.0 S 13 20 7 11 1018.6 - 0.0
 
Date/Time
EST
Tmp

°C
App
Tmp
°C
Dew
Point
°C
Rel
Hum
%
Delta-T

°C
Wind Press
QNH
hPa
Press
MSL
hPa
Rain
since
9 am
mm
Dir
 
Spd
km/h
Gust
km/h
Spd
kts
Gust
kts
30/11:45pm 11.9 8.8 5.5 65 3.0 SSW 11 20 6 11 1018.6 - 0.0
30/11:30pm 12.0 8.5 5.5 64 3.0 SSW 13 20 7 11 1018.6 - 0.0
30/11:15pm 11.9 8.5 5.7 66 2.9 S 13 19 7 10 1018.6 - 0.0
30/11:00pm 11.8 8.0 5.8 66 2.8 S 15 20 8 11 1018.6 - 0.0
30/10:45pm 11.8 8.0 5.8 66 2.8 S 15 20 8 11 1018.8 - 0.0
30/10:30pm 11.7 8.3 6.0 68 2.7 S 13 20 7 11 1018.9 - 0.0
30/10:15pm 11.4 7.7 6.1 70 2.5 S 15 22 8 12 1019.0 - 0.0
30/10:00pm 11.0 7.2 6.0 71 2.3 S 15 22 8 12 1018.9 - 0.0
30/09:45pm 10.7 6.9 5.8 72 2.3 S 15 19 8 10 1018.9 - 0.0
30/09:30pm 10.9 7.5 5.9 71 2.3 S 13 22 7 12 1018.9 - 0.0
30/09:15pm 10.9 7.1 6.0 72 2.3 S 15 24 8 13 1018.9 - 0.0
30/09:00pm 10.9 7.1 6.0 72 2.3 S 15 28 8 15 1018.9 - 0.0
30/08:45pm 11.0 7.6 5.9 71 2.4 S 13 22 7 12 1018.9 - 0.0
30/08:30pm 11.2 7.8 6.0 70 2.4 S 13 24 7 13 1018.8 - 0.0
30/08:15pm 11.3 7.5 6.0 70 2.5 S 15 24 8 13 1018.7 - 0.0
30/08:00pm 11.6 7.9 6.1 69 2.6 S 15 20 8 11 1018.7 - 0.0
30/07:45pm 11.8 8.1 6.2 68 2.7 S 15 20 8 11 1018.6 - 0.0
30/07:30pm 11.7 7.2 6.0 68 2.7 S 19 24 10 13 1018.5 - 0.0
30/07:15pm 11.9 7.8 6.0 67 2.8 S 17 20 9 11 1018.5 - 0.0
30/07:00pm 11.9 8.1 5.9 66 2.8 S 15 20 8 11 1018.4 - 0.0
30/06:45pm 11.9 8.1 5.7 66 2.9 SSE 15 20 8 11 1018.2 - 0.0
30/06:30pm 12.1 8.3 5.6 64 3.0 SSE 15 19 8 10 1018.1 - 0.0
30/06:15pm 12.4 8.6 5.6 63 3.2 SSE 15 20 8 11 1018.1 - 0.0
30/06:00pm 12.5 8.7 5.7 63 3.2 SSE 15 20 8 11 1018.0 - 0.0
30/05:45pm 12.7 8.5 5.6 62 3.3 SSE 17 22 9 12 1017.9 - 0.0
30/05:30pm 12.9 8.7 5.5 60 3.5 SSE 17 22 9 12 1017.7 - 0.0
30/05:15pm 13.2 8.9 5.4 59 3.7 SSE 17 22 9 12 1017.7 - 0.0
30/05:00pm 13.5 8.6 5.3 57 3.9 SSE 20 32 11 17 1017.7 - 0.0
30/04:45pm 13.9 9.2 5.2 55 4.1 S 19 28 10 15 1017.6 - 0.0
30/04:30pm 14.3 9.5 5.5 55 4.2 SSE 20 30 11 16 1017.6 - 0.0
30/04:15pm 14.5 10.4 6.0 56 4.1 SSE 17 26 9 14 1017.6 - 0.0
30/04:00pm 14.7 10.6 6.2 56 4.1 SSE 17 28 9 15 1017.5 - 0.0
30/03:45pm 14.8 9.7 5.8 55 4.3 SSE 22 32 12 17 1017.5 - 0.0
30/03:30pm 15.3 10.5 5.8 53 4.6 SSE 20 30 11 16 1017.5 - 0.0
30/03:15pm 15.3 10.8 5.9 53 4.5 SSE 19 28 10 15 1017.6 - 0.0
30/03:00pm 15.3 10.7 5.5 52 4.7 SSE 19 26 10 14 1017.7 - 0.0
30/02:45pm 15.8 12.0 5.7 51 4.9 SSE 15 24 8 13 1017.6 - 0.0
30/02:30pm 16.1 11.9 5.9 50 5.0 S 17 26 9 14 1017.6 - 0.0
30/02:15pm 15.7 12.3 5.7 51 4.8 SSE 13 28 7 15 1017.6 - 0.0
30/02:00pm 15.8 12.0 5.6 50 4.9 SSE 15 26 8 14 1017.7 - 0.0
30/01:45pm 15.7 11.7 5.1 49 5.1 SSE 15 22 8 12 1017.8 - 0.0
30/01:30pm 15.6 11.3 5.1 49 5.0 SE 17 24 9 13 1017.8 - 0.0
30/01:15pm 15.9 11.6 5.1 48 5.2 SSE 17 26 9 14 1018.0 - 0.0
30/01:00pm 15.5 11.0 4.4 47 5.2 SSE 17 28 9 15 1018.2 - 0.0
30/12:45pm 15.2 10.7 4.4 48 5.1 SE 17 28 9 15 1018.4 - 0.0
30/12:30pm 15.8 11.8 4.7 47 5.3 SE 15 22 8 12 1018.6 - 0.0
30/12:15pm 15.1 10.5 3.8 46 5.2 SE 17 24 9 13 1018.8 - 0.0
30/12:00pm 15.3 10.3 3.6 45 5.4 SE 19 26 10 14 1019.0 - 0.0
30/11:45am 15.9 11.8 4.4 46 5.4 SE 15 26 8 14 1019.3 - 0.0
30/11:30am 15.4 12.0 4.2 47 5.2 SE 11 19 6 10 1019.5 - 0.0
30/11:15am 15.0 11.1 3.6 46 5.2 SE 13 19 7 10 1019.7 - 0.0
30/11:00am 15.2 11.8 4.1 47 5.2 S 11 20 6 11 1019.8 - 0.0
30/10:45am 15.2 11.1 4.2 48 5.1 S 15 22 8 12 1019.9 - 0.0
30/10:30am 15.1 11.0 4.1 47 5.1 S 15 24 8 13 1019.9 - 0.0
30/10:15am 14.6 10.8 4.1 49 4.9 SSW 13 19 7 10 1020.0 - 0.0
30/10:00am 14.5 10.7 4.1 49 4.8 S 13 22 7 12 1020.1 - 0.0
30/09:45am 14.2 10.1 4.3 51 4.6 S 15 28 8 15 1020.0 - 0.0
30/09:30am 13.5 10.6 4.5 54 4.2 SW 9 15 5 8 1020.0 - 0.0
30/09:15am 12.6 9.2 4.1 56 3.9 SW 11 19 6 10 1020.1 - 0.0
30/09:00am 12.0 8.6 3.8 57 3.7 SW 11 17 6 9 1020.1 - 0.0
30/08:45am 11.3 7.8 3.5 58 3.5 SW 11 17 6 9 1020.1 - 0.0
30/08:30am 10.5 6.2 3.3 61 3.2 SW 15 19 8 10 1020.1 - 0.0
30/08:15am 9.9 5.6 3.0 62 3.0 SW 15 20 8 11 1020.1 - 0.0
30/08:00am 9.3 4.9 2.8 64 2.8 SW 15 19 8 10 1020.0 - 0.0
30/07:45am 8.6 4.2 2.5 65 2.6 SW 15 22 8 12 1019.9 - 0.0
30/07:30am 8.0 3.1 2.2 67 2.4 SW 17 22 9 12 1019.8 - 0.0
30/07:15am 7.5 2.6 1.8 67 2.3 SW 17 19 9 10 1019.7 - 0.0
30/07:00am 7.1 2.1 1.6 68 2.2 SSW 17 19 9 10 1019.6 - 0.0
30/06:45am 6.9 2.3 1.4 68 2.2 SSW 15 19 8 10 1019.6 - 0.0
30/06:30am 7.0 2.4 1.3 67 2.3 SSW 15 19 8 10 1019.4 - 0.0
30/06:15am 7.3 2.7 1.4 66 2.4 SSW 15 19 8 10 1019.4 - 0.0
30/06:00am 7.5 2.9 1.5 66 2.5 SSW 15 20 8 11 1019.3 - 0.0
30/05:45am 7.6 2.6 1.6 66 2.5 SSW 17 24 9 13 1019.2 - 0.0
30/05:30am 7.4 2.8 1.5 66 2.4 SSW 15 24 8 13 1019.1 - 0.0
30/05:15am 7.4 2.8 1.5 66 2.4 SSW 15 24 8 13 1019.0 - 0.0
30/05:00am 7.4 3.5 1.4 66 2.4 SSW 11 19 6 10 1019.0 - 0.0
30/04:45am 7.6 3.0 1.4 65 2.5 SSW 15 22 8 12 1019.0 - 0.0
30/04:30am 7.6 3.0 1.6 66 2.5 SSW 15 22 8 12 1018.9 - 0.0
30/04:15am 7.4 3.2 1.5 66 2.4 SSW 13 22 7 12 1018.9 - 0.0
30/04:00am 7.3 3.4 1.4 66 2.4 SSW 11 17 6 9 1019.0 - 0.0
30/03:45am 7.3 2.7 1.4 66 2.4 SSW 15 24 8 13 1019.0 - 0.0
30/03:30am 7.2 3.3 1.2 65 2.4 SSW 11 19 6 10 1019.1 - 0.0
30/03:15am 7.3 3.0 1.2 65 2.5 SSW 13 22 7 12 1019.2 - 0.0
30/03:00am 7.4 2.0 1.1 64 2.5 SSW 19 28 10 15 1019.3 - 0.0
30/02:45am 7.4 2.7 1.0 64 2.6 SSW 15 22 8 12 1019.5 - 0.0
30/02:30am 7.6 2.5 1.0 63 2.7 SSW 17 22 9 12 1019.6 - 0.0
30/02:15am 7.7 2.6 0.9 62 2.7 SW 17 22 9 12 1019.7 - 0.0

Latest Capital City Observations: Canberra | Sydney | Melbourne | Brisbane | Adelaide | Perth | Hobart | Darwin

Other Formats:

Comma delimited format used in spreadsheet applications
http://www.bom.gov.au/fwo/IDN60901/IDN60901.95757.axf

JavaScript Object Notation format (JSON) in row-major order
http://www.bom.gov.au/fwo/IDN60901/IDN60901.95757.json